sensor_id;sensor_type;location;lat;lon;timestamp;temperature;humidity
84008;DHT22;74070;50.948;6.954;2024-03-17T00:00:12;6.60;99.90
84008;DHT22;74070;50.948;6.954;2024-03-17T00:02:39;6.60;99.90
84008;DHT22;74070;50.948;6.954;2024-03-17T00:05:06;6.60;99.90
84008;DHT22;74070;50.948;6.954;2024-03-17T00:07:33;6.60;99.90
84008;DHT22;74070;50.948;6.954;2024-03-17T00:09:59;6.60;99.90
84008;DHT22;74070;50.948;6.954;2024-03-17T00:12:26;6.60;99.90
84008;DHT22;74070;50.948;6.954;2024-03-17T00:14:53;6.60;99.90
84008;DHT22;74070;50.948;6.954;2024-03-17T00:17:19;6.60;99.90
84008;DHT22;74070;50.948;6.954;2024-03-17T00:19:46;6.50;99.90
84008;DHT22;74070;50.948;6.954;2024-03-17T00:22:12;6.50;99.90
84008;DHT22;74070;50.948;6.954;2024-03-17T00:24:40;6.50;99.90
84008;DHT22;74070;50.948;6.954;2024-03-17T00:27:07;6.60;99.90
84008;DHT22;74070;50.948;6.954;2024-03-17T00:29:33;6.50;99.90
84008;DHT22;74070;50.948;6.954;2024-03-17T00:32:00;6.50;99.90
84008;DHT22;74070;50.948;6.954;2024-03-17T00:34:26;6.50;99.90
84008;DHT22;74070;50.948;6.954;2024-03-17T00:36:53;6.40;99.90
84008;DHT22;74070;50.948;6.954;2024-03-17T00:39:20;6.40;99.90
84008;DHT22;74070;50.948;6.954;2024-03-17T00:41:46;6.40;99.90
84008;DHT22;74070;50.948;6.954;2024-03-17T00:44:14;6.40;99.90
84008;DHT22;74070;50.948;6.954;2024-03-17T00:46:40;6.40;99.90
84008;DHT22;74070;50.948;6.954;2024-03-17T00:49:07;6.40;99.90
84008;DHT22;74070;50.948;6.954;2024-03-17T00:51:33;6.30;99.90
84008;DHT22;74070;50.948;6.954;2024-03-17T00:54:00;6.40;99.90
84008;DHT22;74070;50.948;6.954;2024-03-17T00:56:27;6.40;99.90
84008;DHT22;74070;50.948;6.954;2024-03-17T00:58:53;6.40;99.90
84008;DHT22;74070;50.948;6.954;2024-03-17T01:01:20;6.40;99.90
84008;DHT22;74070;50.948;6.954;2024-03-17T01:03:49;6.30;99.90
84008;DHT22;74070;50.948;6.954;2024-03-17T01:06:16;6.30;99.90
84008;DHT22;74070;50.948;6.954;2024-03-17T01:08:42;6.30;99.90
84008;DHT22;74070;50.948;6.954;2024-03-17T01:11:13;6.30;99.90
84008;DHT22;74070;50.948;6.954;2024-03-17T01:13:35;6.30;99.90
84008;DHT22;74070;50.948;6.954;2024-03-17T01:16:02;6.20;99.90
84008;DHT22;74070;50.948;6.954;2024-03-17T01:18:29;6.20;99.90
84008;DHT22;74070;50.948;6.954;2024-03-17T01:20:55;6.20;99.90
84008;DHT22;74070;50.948;6.954;2024-03-17T01:23:22;6.20;99.90
84008;DHT22;74070;50.948;6.954;2024-03-17T01:25:48;6.20;99.90
84008;DHT22;74070;50.948;6.954;2024-03-17T01:28:15;6.20;99.90
84008;DHT22;74070;50.948;6.954;2024-03-17T01:30:42;6.20;99.90
84008;DHT22;74070;50.948;6.954;2024-03-17T01:33:08;6.20;99.90
84008;DHT22;74070;50.948;6.954;2024-03-17T01:35:35;6.10;99.90
84008;DHT22;74070;50.948;6.954;2024-03-17T01:38:02;6.00;99.90
84008;DHT22;74070;50.948;6.954;2024-03-17T01:40:28;6.00;99.90
84008;DHT22;74070;50.948;6.954;2024-03-17T01:42:55;6.00;99.90
84008;DHT22;74070;50.948;6.954;2024-03-17T01:45:28;5.90;99.90
84008;DHT22;74070;50.948;6.954;2024-03-17T01:47:54;5.90;99.90
84008;DHT22;74070;50.948;6.954;2024-03-17T01:50:20;5.80;99.90
84008;DHT22;74070;50.948;6.954;2024-03-17T01:52:47;5.70;99.90
84008;DHT22;74070;50.948;6.954;2024-03-17T01:55:13;5.70;99.90
84008;DHT22;74070;50.948;6.954;2024-03-17T01:57:40;5.60;99.90
84008;DHT22;74070;50.948;6.954;2024-03-17T02:00:07;5.60;99.90
84008;DHT22;74070;50.948;6.954;2024-03-17T02:02:34;5.60;99.90
84008;DHT22;74070;50.948;6.954;2024-03-17T02:05:00;5.60;99.90
84008;DHT22;74070;50.948;6.954;2024-03-17T02:07:27;5.70;99.90
84008;DHT22;74070;50.948;6.954;2024-03-17T02:09:53;5.70;99.90
84008;DHT22;74070;50.948;6.954;2024-03-17T02:12:20;5.70;99.90
84008;DHT22;74070;50.948;6.954;2024-03-17T02:14:46;5.60;99.90
84008;DHT22;74070;50.948;6.954;2024-03-17T02:17:13;5.50;99.90
84008;DHT22;74070;50.948;6.954;2024-03-17T02:19:40;5.50;99.90
84008;DHT22;74070;50.948;6.954;2024-03-17T02:22:13;5.60;99.90
84008;DHT22;74070;50.948;6.954;2024-03-17T02:24:35;5.50;99.90
84008;DHT22;74070;50.948;6.954;2024-03-17T02:27:02;5.50;99.90
84008;DHT22;74070;50.948;6.954;2024-03-17T02:29:28;5.50;99.90
84008;DHT22;74070;50.948;6.954;2024-03-17T02:31:55;5.40;99.90
84008;DHT22;74070;50.948;6.954;2024-03-17T02:34:22;5.50;99.90
84008;DHT22;74070;50.948;6.954;2024-03-17T02:36:50;5.40;99.90
84008;DHT22;74070;50.948;6.954;2024-03-17T02:39:17;5.30;99.90
84008;DHT22;74070;50.948;6.954;2024-03-17T02:41:49;5.20;99.90
84008;DHT22;74070;50.948;6.954;2024-03-17T02:44:16;5.40;99.90
84008;DHT22;74070;50.948;6.954;2024-03-17T02:46:43;5.30;99.90
84008;DHT22;74070;50.948;6.954;2024-03-17T02:49:09;5.30;99.90
84008;DHT22;74070;50.948;6.954;2024-03-17T02:51:36;5.30;99.90
84008;DHT22;74070;50.948;6.954;2024-03-17T02:54:02;5.20;99.90
84008;DHT22;74070;50.948;6.954;2024-03-17T02:56:29;5.30;99.90
84008;DHT22;74070;50.948;6.954;2024-03-17T02:58:56;5.30;99.90
84008;DHT22;74070;50.948;6.954;2024-03-17T03:01:23;5.30;99.90
84008;DHT22;74070;50.948;6.954;2024-03-17T03:03:50;5.20;99.90
84008;DHT22;74070;50.948;6.954;2024-03-17T03:06:16;5.20;99.90
84008;DHT22;74070;50.948;6.954;2024-03-17T03:08:43;5.20;99.90
84008;DHT22;74070;50.948;6.954;2024-03-17T03:11:10;5.20;99.90
84008;DHT22;74070;50.948;6.954;2024-03-17T03:13:37;5.20;99.90
84008;DHT22;74070;50.948;6.954;2024-03-17T03:16:05;5.20;99.90
84008;DHT22;74070;50.948;6.954;2024-03-17T03:18:30;5.10;99.90
84008;DHT22;74070;50.948;6.954;2024-03-17T03:20:57;5.10;99.90
84008;DHT22;74070;50.948;6.954;2024-03-17T03:23:23;5.10;99.90
84008;DHT22;74070;50.948;6.954;2024-03-17T03:25:58;5.10;99.90
84008;DHT22;74070;50.948;6.954;2024-03-17T03:28:25;5.00;99.90
84008;DHT22;74070;50.948;6.954;2024-03-17T03:30:52;5.10;99.90
84008;DHT22;74070;50.948;6.954;2024-03-17T03:33:20;5.00;99.90
84008;DHT22;74070;50.948;6.954;2024-03-17T03:35:47;5.00;99.90
84008;DHT22;74070;50.948;6.954;2024-03-17T03:38:14;5.00;99.90
84008;DHT22;74070;50.948;6.954;2024-03-17T03:40:42;4.90;99.90
84008;DHT22;74070;50.948;6.954;2024-03-17T03:43:10;4.90;99.90
84008;DHT22;74070;50.948;6.954;2024-03-17T03:45:37;4.90;99.90
84008;DHT22;74070;50.948;6.954;2024-03-17T03:48:04;4.90;99.90
84008;DHT22;74070;50.948;6.954;2024-03-17T03:50:31;4.80;99.90
84008;DHT22;74070;50.948;6.954;2024-03-17T03:52:58;5.00;99.90
84008;DHT22;74070;50.948;6.954;2024-03-17T03:55:24;5.00;99.90
84008;DHT22;74070;50.948;6.954;2024-03-17T03:57:51;5.00;99.90
84008;DHT22;74070;50.948;6.954;2024-03-17T04:00:19;4.90;99.90
84008;DHT22;74070;50.948;6.954;2024-03-17T04:02:48;4.80;99.90
84008;DHT22;74070;50.948;6.954;2024-03-17T04:05:14;4.80;99.90
84008;DHT22;74070;50.948;6.954;2024-03-17T04:07:41;4.90;99.90
84008;DHT22;74070;50.948;6.954;2024-03-17T04:10:09;4.90;99.90
84008;DHT22;74070;50.948;6.954;2024-03-17T04:12:36;4.80;99.90
84008;DHT22;74070;50.948;6.954;2024-03-17T04:15:02;4.90;99.90
84008;DHT22;74070;50.948;6.954;2024-03-17T04:17:30;4.90;99.90
84008;DHT22;74070;50.948;6.954;2024-03-17T04:19:57;4.90;99.90
84008;DHT22;74070;50.948;6.954;2024-03-17T04:22:24;5.00;99.90
84008;DHT22;74070;50.948;6.954;2024-03-17T04:24:51;4.90;99.90
84008;DHT22;74070;50.948;6.954;2024-03-17T04:27:20;5.00;99.90
84008;DHT22;74070;50.948;6.954;2024-03-17T04:29:47;5.00;99.90
84008;DHT22;74070;50.948;6.954;2024-03-17T04:32:13;5.00;99.90
84008;DHT22;74070;50.948;6.954;2024-03-17T04:34:39;5.00;99.90
84008;DHT22;74070;50.948;6.954;2024-03-17T04:37:06;5.10;99.90
84008;DHT22;74070;50.948;6.954;2024-03-17T04:39:32;5.10;99.90
84008;DHT22;74070;50.948;6.954;2024-03-17T04:41:59;5.10;99.90
84008;DHT22;74070;50.948;6.954;2024-03-17T04:44:26;5.20;99.90
84008;DHT22;74070;50.948;6.954;2024-03-17T04:46:53;5.20;99.90
84008;DHT22;74070;50.948;6.954;2024-03-17T04:49:20;5.20;99.90
84008;DHT22;74070;50.948;6.954;2024-03-17T04:51:47;5.20;99.90
84008;DHT22;74070;50.948;6.954;2024-03-17T04:54:14;5.20;99.90
84008;DHT22;74070;50.948;6.954;2024-03-17T04:56:41;5.20;99.90
84008;DHT22;74070;50.948;6.954;2024-03-17T04:59:08;5.20;99.90
84008;DHT22;74070;50.948;6.954;2024-03-17T05:01:35;5.20;99.90
84008;DHT22;74070;50.948;6.954;2024-03-17T05:04:02;5.20;99.90
84008;DHT22;74070;50.948;6.954;2024-03-17T05:06:30;5.10;99.90
84008;DHT22;74070;50.948;6.954;2024-03-17T05:08:57;5.10;99.90
84008;DHT22;74070;50.948;6.954;2024-03-17T05:11:24;5.00;99.90
84008;DHT22;74070;50.948;6.954;2024-03-17T05:13:52;5.00;99.90
84008;DHT22;74070;50.948;6.954;2024-03-17T05:16:19;5.00;99.90
84008;DHT22;74070;50.948;6.954;2024-03-17T05:18:48;5.00;99.90
84008;DHT22;74070;50.948;6.954;2024-03-17T05:21:14;4.90;99.90
84008;DHT22;74070;50.948;6.954;2024-03-17T05:23:41;4.90;99.90
84008;DHT22;74070;50.948;6.954;2024-03-17T05:26:08;4.90;99.90
84008;DHT22;74070;50.948;6.954;2024-03-17T05:28:34;5.00;99.90
84008;DHT22;74070;50.948;6.954;2024-03-17T05:31:02;4.90;99.90
84008;DHT22;74070;50.948;6.954;2024-03-17T05:33:29;4.90;99.90
84008;DHT22;74070;50.948;6.954;2024-03-17T05:35:57;4.90;99.90
84008;DHT22;74070;50.948;6.954;2024-03-17T05:38:25;4.90;99.90
84008;DHT22;74070;50.948;6.954;2024-03-17T05:40:54;4.80;99.90
84008;DHT22;74070;50.948;6.954;2024-03-17T05:43:21;4.90;99.90
84008;DHT22;74070;50.948;6.954;2024-03-17T05:45:47;4.90;99.90
84008;DHT22;74070;50.948;6.954;2024-03-17T05:48:14;4.90;99.90
84008;DHT22;74070;50.948;6.954;2024-03-17T05:50:40;4.90;99.90
84008;DHT22;74070;50.948;6.954;2024-03-17T05:53:07;4.80;99.90
84008;DHT22;74070;50.948;6.954;2024-03-17T05:55:36;4.80;99.90
84008;DHT22;74070;50.948;6.954;2024-03-17T05:58:03;4.70;99.90
84008;DHT22;74070;50.948;6.954;2024-03-17T06:00:30;4.80;99.90
84008;DHT22;74070;50.948;6.954;2024-03-17T06:02:56;4.70;99.90
84008;DHT22;74070;50.948;6.954;2024-03-17T06:05:23;4.80;99.90
84008;DHT22;74070;50.948;6.954;2024-03-17T06:07:49;4.80;99.90
84008;DHT22;74070;50.948;6.954;2024-03-17T06:10:17;4.80;99.90
84008;DHT22;74070;50.948;6.954;2024-03-17T06:12:44;4.80;99.90
84008;DHT22;74070;50.948;6.954;2024-03-17T06:15:11;4.80;99.90
84008;DHT22;74070;50.948;6.954;2024-03-17T06:17:38;4.70;99.90
84008;DHT22;74070;50.948;6.954;2024-03-17T06:20:05;4.70;99.90
84008;DHT22;74070;50.948;6.954;2024-03-17T06:22:32;4.80;99.90
84008;DHT22;74070;50.948;6.954;2024-03-17T06:24:58;4.80;99.90
84008;DHT22;74070;50.948;6.954;2024-03-17T06:27:25;4.80;99.90
84008;DHT22;74070;50.948;6.954;2024-03-17T06:29:51;4.90;99.90
84008;DHT22;74070;50.948;6.954;2024-03-17T06:32:18;5.00;99.90
84008;DHT22;74070;50.948;6.954;2024-03-17T06:34:45;5.00;99.90
84008;DHT22;74070;50.948;6.954;2024-03-17T06:37:11;5.00;99.90
84008;DHT22;74070;50.948;6.954;2024-03-17T06:39:38;5.00;99.90
84008;DHT22;74070;50.948;6.954;2024-03-17T06:42:05;5.00;99.90
84008;DHT22;74070;50.948;6.954;2024-03-17T06:44:31;5.20;99.90
84008;DHT22;74070;50.948;6.954;2024-03-17T06:46:58;5.30;99.90
84008;DHT22;74070;50.948;6.954;2024-03-17T06:49:24;5.40;99.90
84008;DHT22;74070;50.948;6.954;2024-03-17T06:51:52;5.50;99.90
84008;DHT22;74070;50.948;6.954;2024-03-17T06:54:19;5.50;99.90
84008;DHT22;74070;50.948;6.954;2024-03-17T06:56:46;5.50;99.90
84008;DHT22;74070;50.948;6.954;2024-03-17T06:59:14;5.50;99.90
84008;DHT22;74070;50.948;6.954;2024-03-17T07:01:40;5.40;99.90
84008;DHT22;74070;50.948;6.954;2024-03-17T07:04:07;5.50;99.90
84008;DHT22;74070;50.948;6.954;2024-03-17T07:06:33;5.50;99.90
84008;DHT22;74070;50.948;6.954;2024-03-17T07:09:00;5.50;99.90
84008;DHT22;74070;50.948;6.954;2024-03-17T07:11:27;5.50;99.90
84008;DHT22;74070;50.948;6.954;2024-03-17T07:13:53;5.50;99.90
84008;DHT22;74070;50.948;6.954;2024-03-17T07:16:20;5.60;99.90
84008;DHT22;74070;50.948;6.954;2024-03-17T07:18:47;5.70;99.90
84008;DHT22;74070;50.948;6.954;2024-03-17T07:21:14;5.70;99.90
84008;DHT22;74070;50.948;6.954;2024-03-17T07:23:41;5.80;99.90
84008;DHT22;74070;50.948;6.954;2024-03-17T07:26:07;5.90;99.90
84008;DHT22;74070;50.948;6.954;2024-03-17T07:28:34;5.90;99.90
84008;DHT22;74070;50.948;6.954;2024-03-17T07:31:00;6.10;99.90
84008;DHT22;74070;50.948;6.954;2024-03-17T07:33:27;6.30;99.90
84008;DHT22;74070;50.948;6.954;2024-03-17T07:35:54;6.30;99.90
84008;DHT22;74070;50.948;6.954;2024-03-17T07:38:22;6.40;99.90
84008;DHT22;74070;50.948;6.954;2024-03-17T07:40:58;6.50;99.90
84008;DHT22;74070;50.948;6.954;2024-03-17T07:43:24;6.50;99.90
84008;DHT22;74070;50.948;6.954;2024-03-17T07:45:58;6.60;99.90
84008;DHT22;74070;50.948;6.954;2024-03-17T07:48:23;6.70;99.90
84008;DHT22;74070;50.948;6.954;2024-03-17T07:50:57;6.90;99.90
84008;DHT22;74070;50.948;6.954;2024-03-17T07:53:23;6.90;99.90
84008;DHT22;74070;50.948;6.954;2024-03-17T07:55:57;7.00;99.90
84008;DHT22;74070;50.948;6.954;2024-03-17T07:58:23;7.10;99.90
84008;DHT22;74070;50.948;6.954;2024-03-17T08:00:57;7.30;99.90
84008;DHT22;74070;50.948;6.954;2024-03-17T08:03:27;7.50;99.90
84008;DHT22;74070;50.948;6.954;2024-03-17T08:05:53;7.40;99.90
84008;DHT22;74070;50.948;6.954;2024-03-17T08:08:19;7.60;99.90
84008;DHT22;74070;50.948;6.954;2024-03-17T08:10:46;7.80;99.90
84008;DHT22;74070;50.948;6.954;2024-03-17T08:13:13;7.90;99.90
84008;DHT22;74070;50.948;6.954;2024-03-17T08:15:40;8.10;99.90
84008;DHT22;74070;50.948;6.954;2024-03-17T08:18:07;8.30;99.90
84008;DHT22;74070;50.948;6.954;2024-03-17T08:20:39;8.50;99.90
84008;DHT22;74070;50.948;6.954;2024-03-17T08:23:06;8.70;99.90
84008;DHT22;74070;50.948;6.954;2024-03-17T08:25:34;8.90;99.90
84008;DHT22;74070;50.948;6.954;2024-03-17T08:28:01;8.90;99.90
84008;DHT22;74070;50.948;6.954;2024-03-17T08:30:27;9.00;99.90
84008;DHT22;74070;50.948;6.954;2024-03-17T08:32:53;9.00;99.90
84008;DHT22;74070;50.948;6.954;2024-03-17T08:35:20;9.00;99.90
84008;DHT22;74070;50.948;6.954;2024-03-17T08:37:47;9.10;99.90
84008;DHT22;74070;50.948;6.954;2024-03-17T08:40:13;9.30;99.90
84008;DHT22;74070;50.948;6.954;2024-03-17T08:42:40;9.70;99.90
84008;DHT22;74070;50.948;6.954;2024-03-17T08:45:08;9.60;99.90
84008;DHT22;74070;50.948;6.954;2024-03-17T08:47:35;10.00;99.90
84008;DHT22;74070;50.948;6.954;2024-03-17T08:50:02;9.90;99.90
84008;DHT22;74070;50.948;6.954;2024-03-17T08:52:28;10.00;99.90
84008;DHT22;74070;50.948;6.954;2024-03-17T08:54:56;10.30;99.90
84008;DHT22;74070;50.948;6.954;2024-03-17T08:57:22;10.20;99.90
84008;DHT22;74070;50.948;6.954;2024-03-17T08:59:49;10.30;99.90
84008;DHT22;74070;50.948;6.954;2024-03-17T09:02:15;10.10;99.90
84008;DHT22;74070;50.948;6.954;2024-03-17T09:04:42;10.20;99.90
84008;DHT22;74070;50.948;6.954;2024-03-17T09:07:09;10.30;99.90
84008;DHT22;74070;50.948;6.954;2024-03-17T09:09:35;10.40;99.90
84008;DHT22;74070;50.948;6.954;2024-03-17T09:12:02;10.60;99.90
84008;DHT22;74070;50.948;6.954;2024-03-17T09:14:28;10.70;99.90
84008;DHT22;74070;50.948;6.954;2024-03-17T09:16:55;10.90;99.90
84008;DHT22;74070;50.948;6.954;2024-03-17T09:19:22;11.00;99.90
84008;DHT22;74070;50.948;6.954;2024-03-17T09:21:48;11.10;99.90
84008;DHT22;74070;50.948;6.954;2024-03-17T09:24:15;11.20;99.90
84008;DHT22;74070;50.948;6.954;2024-03-17T09:26:41;11.00;99.90
84008;DHT22;74070;50.948;6.954;2024-03-17T09:29:08;11.20;99.90
84008;DHT22;74070;50.948;6.954;2024-03-17T09:31:35;11.60;99.90
84008;DHT22;74070;50.948;6.954;2024-03-17T09:34:02;11.60;99.90
84008;DHT22;74070;50.948;6.954;2024-03-17T09:36:29;11.60;99.90
84008;DHT22;74070;50.948;6.954;2024-03-17T09:38:56;12.00;99.90
84008;DHT22;74070;50.948;6.954;2024-03-17T09:41:23;11.90;99.90
84008;DHT22;74070;50.948;6.954;2024-03-17T09:43:53;11.80;99.90
84008;DHT22;74070;50.948;6.954;2024-03-17T09:46:19;12.00;99.90
84008;DHT22;74070;50.948;6.954;2024-03-17T09:48:46;12.10;99.90
84008;DHT22;74070;50.948;6.954;2024-03-17T09:51:18;12.30;99.90
84008;DHT22;74070;50.948;6.954;2024-03-17T09:53:42;12.40;99.90
84008;DHT22;74070;50.948;6.954;2024-03-17T09:56:09;12.10;99.90
84008;DHT22;74070;50.948;6.954;2024-03-17T09:58:35;12.20;99.90
84008;DHT22;74070;50.948;6.954;2024-03-17T10:01:02;12.50;99.90
84008;DHT22;74070;50.948;6.954;2024-03-17T10:06:09;12.60;99.90
84008;DHT22;74070;50.948;6.954;2024-03-17T10:08:43;12.80;99.90
84008;DHT22;74070;50.948;6.954;2024-03-17T10:11:09;12.70;99.90
84008;DHT22;74070;50.948;6.954;2024-03-17T10:13:36;13.00;99.90
84008;DHT22;74070;50.948;6.954;2024-03-17T10:16:03;13.20;99.90
84008;DHT22;74070;50.948;6.954;2024-03-17T10:18:29;13.10;99.90
84008;DHT22;74070;50.948;6.954;2024-03-17T10:20:56;13.10;99.90
84008;DHT22;74070;50.948;6.954;2024-03-17T10:23:22;13.10;99.90
84008;DHT22;74070;50.948;6.954;2024-03-17T10:25:49;13.40;99.90
84008;DHT22;74070;50.948;6.954;2024-03-17T10:28:16;13.50;99.90
84008;DHT22;74070;50.948;6.954;2024-03-17T10:30:56;13.50;99.90
84008;DHT22;74070;50.948;6.954;2024-03-17T10:33:21;13.50;99.90
84008;DHT22;74070;50.948;6.954;2024-03-17T10:35:36;13.60;99.90
84008;DHT22;74070;50.948;6.954;2024-03-17T10:38:03;13.80;99.90
84008;DHT22;74070;50.948;6.954;2024-03-17T10:40:30;14.10;99.90
84008;DHT22;74070;50.948;6.954;2024-03-17T10:42:57;14.00;99.90
84008;DHT22;74070;50.948;6.954;2024-03-17T10:45:23;14.30;99.90
84008;DHT22;74070;50.948;6.954;2024-03-17T10:47:50;14.20;99.90
84008;DHT22;74070;50.948;6.954;2024-03-17T10:50:19;14.30;99.90
84008;DHT22;74070;50.948;6.954;2024-03-17T10:52:45;14.50;99.90
84008;DHT22;74070;50.948;6.954;2024-03-17T10:55:19;14.40;99.90
84008;DHT22;74070;50.948;6.954;2024-03-17T10:57:44;14.40;99.90
84008;DHT22;74070;50.948;6.954;2024-03-17T11:00:09;14.20;99.90
84008;DHT22;74070;50.948;6.954;2024-03-17T11:02:35;14.30;99.90
84008;DHT22;74070;50.948;6.954;2024-03-17T11:05:03;14.30;99.90
84008;DHT22;74070;50.948;6.954;2024-03-17T11:07:30;14.30;99.90
84008;DHT22;74070;50.948;6.954;2024-03-17T11:09:56;14.30;99.90
84008;DHT22;74070;50.948;6.954;2024-03-17T11:17:39;14.30;99.90
84008;DHT22;74070;50.948;6.954;2024-03-17T11:20:43;14.40;99.90
84008;DHT22;74070;50.948;6.954;2024-03-17T11:22:53;14.40;99.90
84008;DHT22;74070;50.948;6.954;2024-03-17T11:25:40;14.70;99.90
84008;DHT22;74070;50.948;6.954;2024-03-17T11:28:07;14.80;99.90
84008;DHT22;74070;50.948;6.954;2024-03-17T11:30:43;15.30;99.90
84008;DHT22;74070;50.948;6.954;2024-03-17T11:35:48;15.40;99.90
84008;DHT22;74070;50.948;6.954;2024-03-17T11:43:42;16.00;99.90
84008;DHT22;74070;50.948;6.954;2024-03-17T11:46:10;16.00;99.90
84008;DHT22;74070;50.948;6.954;2024-03-17T11:48:35;15.80;99.90
84008;DHT22;74070;50.948;6.954;2024-03-17T11:51:02;16.00;99.90
84008;DHT22;74070;50.948;6.954;2024-03-17T11:53:29;16.50;99.90
84008;DHT22;74070;50.948;6.954;2024-03-17T11:55:55;16.60;99.90
84008;DHT22;74070;50.948;6.954;2024-03-17T11:58:22;16.50;99.90
84008;DHT22;74070;50.948;6.954;2024-03-17T12:00:52;16.40;99.90
84008;DHT22;74070;50.948;6.954;2024-03-17T12:03:18;16.60;99.90
84008;DHT22;74070;50.948;6.954;2024-03-17T12:05:45;16.60;99.90
84008;DHT22;74070;50.948;6.954;2024-03-17T12:08:19;16.60;99.90
84008;DHT22;74070;50.948;6.954;2024-03-17T12:10:47;16.50;99.90
84008;DHT22;74070;50.948;6.954;2024-03-17T12:13:15;16.60;99.90
84008;DHT22;74070;50.948;6.954;2024-03-17T12:15:42;16.60;99.90
84008;DHT22;74070;50.948;6.954;2024-03-17T12:18:20;16.50;99.90
84008;DHT22;74070;50.948;6.954;2024-03-17T12:20:48;16.70;99.90
84008;DHT22;74070;50.948;6.954;2024-03-17T12:23:14;16.30;99.90
84008;DHT22;74070;50.948;6.954;2024-03-17T12:25:42;16.60;99.90
84008;DHT22;74070;50.948;6.954;2024-03-17T12:28:15;16.50;99.90
84008;DHT22;74070;50.948;6.954;2024-03-17T12:30:40;16.40;99.90
84008;DHT22;74070;50.948;6.954;2024-03-17T12:33:08;16.50;99.90
84008;DHT22;74070;50.948;6.954;2024-03-17T12:35:33;16.40;99.90
84008;DHT22;74070;50.948;6.954;2024-03-17T12:38:00;16.40;99.90
84008;DHT22;74070;50.948;6.954;2024-03-17T12:40:27;16.30;99.90
84008;DHT22;74070;50.948;6.954;2024-03-17T12:42:53;16.40;99.90
84008;DHT22;74070;50.948;6.954;2024-03-17T12:45:21;16.30;99.90
84008;DHT22;74070;50.948;6.954;2024-03-17T12:47:48;16.60;99.90
84008;DHT22;74070;50.948;6.954;2024-03-17T12:50:14;16.70;99.90
84008;DHT22;74070;50.948;6.954;2024-03-17T12:52:40;16.50;99.90
84008;DHT22;74070;50.948;6.954;2024-03-17T12:55:08;16.40;99.90
84008;DHT22;74070;50.948;6.954;2024-03-17T12:57:39;16.30;99.90
84008;DHT22;74070;50.948;6.954;2024-03-17T13:00:17;16.30;99.90
84008;DHT22;74070;50.948;6.954;2024-03-17T13:02:49;16.50;99.90
84008;DHT22;74070;50.948;6.954;2024-03-17T13:05:17;16.50;99.90
84008;DHT22;74070;50.948;6.954;2024-03-17T13:07:43;16.20;99.90
84008;DHT22;74070;50.948;6.954;2024-03-17T13:10:09;16.40;99.90
84008;DHT22;74070;50.948;6.954;2024-03-17T13:12:36;16.30;99.90
84008;DHT22;74070;50.948;6.954;2024-03-17T13:15:03;16.30;99.90
84008;DHT22;74070;50.948;6.954;2024-03-17T13:17:30;16.20;99.90
84008;DHT22;74070;50.948;6.954;2024-03-17T13:19:57;16.10;99.90
84008;DHT22;74070;50.948;6.954;2024-03-17T13:22:23;16.60;99.90
84008;DHT22;74070;50.948;6.954;2024-03-17T13:24:51;16.30;99.90
84008;DHT22;74070;50.948;6.954;2024-03-17T13:27:17;16.10;99.90
84008;DHT22;74070;50.948;6.954;2024-03-17T13:29:48;15.70;99.90
84008;DHT22;74070;50.948;6.954;2024-03-17T13:32:14;15.60;99.90
84008;DHT22;74070;50.948;6.954;2024-03-17T13:34:41;15.60;99.90
84008;DHT22;74070;50.948;6.954;2024-03-17T13:37:07;15.70;99.90
84008;DHT22;74070;50.948;6.954;2024-03-17T13:39:34;15.90;99.90
84008;DHT22;74070;50.948;6.954;2024-03-17T13:42:00;16.00;99.90
84008;DHT22;74070;50.948;6.954;2024-03-17T13:44:30;16.10;99.90
84008;DHT22;74070;50.948;6.954;2024-03-17T13:46:57;16.00;99.90
84008;DHT22;74070;50.948;6.954;2024-03-17T13:49:24;15.70;99.90
84008;DHT22;74070;50.948;6.954;2024-03-17T13:51:50;15.50;99.90
84008;DHT22;74070;50.948;6.954;2024-03-17T13:54:18;15.60;99.90
84008;DHT22;74070;50.948;6.954;2024-03-17T13:56:47;15.60;99.90
84008;DHT22;74070;50.948;6.954;2024-03-17T13:59:13;15.80;99.90
84008;DHT22;74070;50.948;6.954;2024-03-17T14:01:40;15.60;99.90
84008;DHT22;74070;50.948;6.954;2024-03-17T14:04:06;15.70;99.90
84008;DHT22;74070;50.948;6.954;2024-03-17T14:06:33;15.60;99.90
84008;DHT22;74070;50.948;6.954;2024-03-17T14:08:59;15.60;99.90
84008;DHT22;74070;50.948;6.954;2024-03-17T14:11:26;15.60;99.90
84008;DHT22;74070;50.948;6.954;2024-03-17T14:13:52;15.60;99.90
84008;DHT22;74070;50.948;6.954;2024-03-17T14:16:19;15.70;99.90
84008;DHT22;74070;50.948;6.954;2024-03-17T14:18:46;15.80;99.90
84008;DHT22;74070;50.948;6.954;2024-03-17T14:21:12;15.70;99.90
84008;DHT22;74070;50.948;6.954;2024-03-17T14:23:39;15.80;99.90
84008;DHT22;74070;50.948;6.954;2024-03-17T14:26:05;15.90;99.90
84008;DHT22;74070;50.948;6.954;2024-03-17T14:28:33;16.00;99.90
84008;DHT22;74070;50.948;6.954;2024-03-17T14:31:00;16.20;99.90
84008;DHT22;74070;50.948;6.954;2024-03-17T14:33:27;16.20;99.90
84008;DHT22;74070;50.948;6.954;2024-03-17T14:35:56;16.30;99.90
84008;DHT22;74070;50.948;6.954;2024-03-17T14:38:22;16.50;99.90
84008;DHT22;74070;50.948;6.954;2024-03-17T14:40:52;16.80;99.90
84008;DHT22;74070;50.948;6.954;2024-03-17T14:43:18;16.70;99.90
84008;DHT22;74070;50.948;6.954;2024-03-17T14:45:45;17.20;99.90
84008;DHT22;74070;50.948;6.954;2024-03-17T14:48:12;17.30;99.90
84008;DHT22;74070;50.948;6.954;2024-03-17T14:50:39;17.30;99.90
84008;DHT22;74070;50.948;6.954;2024-03-17T14:53:06;17.30;99.90
84008;DHT22;74070;50.948;6.954;2024-03-17T14:55:34;17.20;99.90
84008;DHT22;74070;50.948;6.954;2024-03-17T14:58:01;17.70;99.90
84008;DHT22;74070;50.948;6.954;2024-03-17T15:00:28;17.60;99.90
84008;DHT22;74070;50.948;6.954;2024-03-17T15:02:55;18.40;99.90
84008;DHT22;74070;50.948;6.954;2024-03-17T15:05:22;18.80;99.90
84008;DHT22;74070;50.948;6.954;2024-03-17T15:07:48;19.40;99.90
84008;DHT22;74070;50.948;6.954;2024-03-17T15:10:15;20.70;99.90
84008;DHT22;74070;50.948;6.954;2024-03-17T15:12:42;20.60;99.90
84008;DHT22;74070;50.948;6.954;2024-03-17T15:15:09;21.30;95.80
84008;DHT22;74070;50.948;6.954;2024-03-17T15:17:36;21.40;93.10
84008;DHT22;74070;50.948;6.954;2024-03-17T15:20:02;21.40;92.50
84008;DHT22;74070;50.948;6.954;2024-03-17T15:22:29;21.90;90.70
84008;DHT22;74070;50.948;6.954;2024-03-17T15:24:55;22.00;86.10
84008;DHT22;74070;50.948;6.954;2024-03-17T15:27:22;22.50;88.00
84008;DHT22;74070;50.948;6.954;2024-03-17T15:29:48;22.40;81.10
84008;DHT22;74070;50.948;6.954;2024-03-17T15:32:15;21.00;93.70
84008;DHT22;74070;50.948;6.954;2024-03-17T15:34:42;18.50;99.90
84008;DHT22;74070;50.948;6.954;2024-03-17T15:37:10;18.20;99.90
84008;DHT22;74070;50.948;6.954;2024-03-17T15:39:36;18.10;99.90
84008;DHT22;74070;50.948;6.954;2024-03-17T15:42:03;17.50;99.90
84008;DHT22;74070;50.948;6.954;2024-03-17T15:44:30;17.50;99.90
84008;DHT22;74070;50.948;6.954;2024-03-17T15:46:56;17.30;99.90
84008;DHT22;74070;50.948;6.954;2024-03-17T15:49:23;17.20;99.90
84008;DHT22;74070;50.948;6.954;2024-03-17T15:51:49;17.30;99.90
84008;DHT22;74070;50.948;6.954;2024-03-17T15:54:16;16.90;99.90